Time;durP1;ratioP1;P1;durP2;ratioP2;P2;SDS_P1;SDS_P2;PMS_P1;PMS_P2;Temp;Humidity;BMP_temperature;BMP_pressure;BME280_temperature;BME280_humidity;BME280_pressure;Samples;Min_cycle;Max_cycle;Signal;HPM_P1;HPM_P2
2023/10/13 00:01:23;;;;;;;20.17;8.52;;;;;;;16.65;100.00;101112.13;5069387;28;20043;-71
2023/10/13 00:03:51;;;;;;;19.80;8.52;;;;;;;16.72;100.00;101122.81;5064479;28;20104;-71
2023/10/13 00:06:18;;;;;;;14.25;6.95;;;;;;;16.68;100.00;101114.34;5058856;28;20077;-71
2023/10/13 00:08:43;;;;;;;15.80;7.95;;;;;;;16.63;100.00;101098.88;5068708;28;20074;-71
2023/10/13 00:11:13;;;;;;;14.20;7.55;;;;;;;16.74;100.00;101115.28;5052641;28;20036;-71
2023/10/13 00:13:50;;;;;;;20.23;8.25;;;;;;;16.55;100.00;101079.53;5051760;28;20487;-71
2023/10/13 00:16:22;;;;;;;14.73;8.05;;;;;;;16.69;100.00;101097.16;5053379;28;20047;-71
2023/10/13 00:18:50;;;;;;;17.02;7.25;;;;;;;16.74;100.00;101104.50;5051789;28;20431;-71
2023/10/13 00:21:20;;;;;;;13.52;7.78;;;;;;;16.59;100.00;101080.75;5070042;28;20024;-71
2023/10/13 00:23:52;;;;;;;13.40;5.68;;;;;;;16.73;100.00;101102.88;5051411;28;20021;-71
2023/10/13 00:26:27;;;;;;;14.00;7.35;;;;;;;16.74;100.00;101096.44;5070651;28;20146;-71
2023/10/13 00:28:59;;;;;;;15.77;6.80;;;;;;;16.58;100.00;101065.59;5056285;28;20124;-71
2023/10/13 00:31:32;;;;;;;15.35;7.03;;;;;;;16.68;100.00;101078.53;5059450;28;20118;-71
2023/10/13 00:34:01;;;;;;;16.25;7.10;;;;;;;16.68;100.00;101087.41;5070865;28;20717;-71
2023/10/13 00:36:26;;;;;;;16.55;8.38;;;;;;;16.71;100.00;101091.53;5070742;28;20107;-71
2023/10/13 00:38:52;;;;;;;19.13;6.88;;;;;;;16.68;100.00;101086.59;5070489;28;20048;-71
2023/10/13 00:41:18;;;;;;;12.48;6.60;;;;;;;16.57;100.00;101072.06;5059443;28;20171;-71
2023/10/13 00:44:08;;;;;;;15.10;7.20;;;;;;;16.68;100.00;101089.28;5047752;28;20040;-72
2023/10/13 00:46:35;;;;;;;14.25;5.88;;;;;;;16.46;100.00;101045.94;5064118;28;20535;-71
2023/10/13 00:49:04;;;;;;;14.65;6.70;;;;;;;16.57;100.00;101066.69;5052752;28;20060;-71
2023/10/13 00:51:36;;;;;;;13.70;6.82;;;;;;;16.63;100.00;101081.91;5054047;28;20116;-71
2023/10/13 00:54:07;;;;;;;14.70;6.75;;;;;;;16.65;100.00;101077.09;5053736;28;20035;-71
2023/10/13 00:56:33;;;;;;;15.93;6.65;;;;;;;16.55;100.00;101061.50;5053553;28;20112;-71
2023/10/13 00:59:02;;;;;;;12.90;5.90;;;;;;;16.56;100.00;101063.16;5050886;28;20049;-71
2023/10/13 01:01:29;;;;;;;17.50;7.00;;;;;;;16.43;100.00;101037.25;5034369;28;20965;-71
2023/10/13 01:04:08;;;;;;;15.55;6.38;;;;;;;16.61;100.00;101068.69;5056977;28;20083;-71
2023/10/13 01:06:37;;;;;;;14.23;5.90;;;;;;;16.61;100.00;101062.44;5059282;28;20032;-71
2023/10/13 01:09:16;;;;;;;13.18;6.60;;;;;;;16.60;100.00;101061.63;5069720;28;20028;-71
2023/10/13 01:11:43;;;;;;;14.02;6.93;;;;;;;16.59;100.00;101057.31;5059862;28;20055;-71
2023/10/13 01:14:14;;;;;;;11.13;6.18;;;;;;;16.48;100.00;101036.59;5052701;28;20029;-71
2023/10/13 01:16:43;;;;;;;12.63;6.78;;;;;;;16.46;100.00;101030.59;5069638;28;20063;-71
2023/10/13 01:19:27;;;;;;;13.20;5.88;;;;;;;16.43;100.00;101025.69;5050281;28;20032;-71
2023/10/13 01:21:57;;;;;;;10.52;5.13;;;;;;;16.55;100.00;101034.59;5059846;28;20071;-71
2023/10/13 01:24:24;;;;;;;12.77;6.05;;;;;;;16.51;100.00;101030.72;5059905;28;20060;-71
2023/10/13 01:26:52;;;;;;;16.73;7.32;;;;;;;16.50;100.00;101025.56;5050354;28;20053;-71
2023/10/13 01:29:19;;;;;;;11.98;6.65;;;;;;;16.55;100.00;101033.75;5051884;28;20101;-71
2023/10/13 01:31:46;;;;;;;12.88;6.57;;;;;;;16.52;100.00;101032.34;5050422;28;20055;-71
2023/10/13 01:34:24;;;;;;;11.85;5.68;;;;;;;16.52;100.00;101029.66;5050355;28;20025;-71
2023/10/13 01:36:51;;;;;;;14.02;5.70;;;;;;;16.51;100.00;101025.34;5049971;28;20439;-71
2023/10/13 01:39:21;;;;;;;12.13;5.32;;;;;;;16.52;100.00;101026.16;5061877;28;20029;-71
2023/10/13 01:41:53;;;;;;;12.95;5.72;;;;;;;16.50;100.00;101012.09;5035900;28;20122;-71
2023/10/13 01:44:19;;;;;;;8.38;5.20;;;;;;;16.43;100.00;101001.44;5067963;28;20025;-71
2023/10/13 01:46:47;;;;;;;10.00;4.70;;;;;;;16.49;100.00;101005.09;5054215;28;20033;-71
2023/10/13 01:49:12;;;;;;;11.93;5.47;;;;;;;16.42;100.00;100984.47;5062185;28;20111;-71
2023/10/13 01:51:39;;;;;;;12.40;5.47;;;;;;;16.29;100.00;100963.13;5055178;28;20107;-71
2023/10/13 01:54:06;;;;;;;10.48;5.10;;;;;;;16.38;100.00;100977.09;5051570;28;20031;-71
2023/10/13 01:56:42;;;;;;;10.55;4.60;;;;;;;16.46;100.00;101000.97;5068861;28;20032;-71
2023/10/13 01:59:09;;;;;;;13.13;4.82;;;;;;;16.45;100.00;100988.56;5050508;28;20048;-71
2023/10/13 02:01:34;;;;;;;12.43;6.43;;;;;;;16.45;100.00;100980.47;5060871;28;20099;-71
2023/10/13 02:04:06;;;;;;;15.15;5.93;;;;;;;16.44;100.00;100976.97;5054232;28;20043;-71
2023/10/13 02:06:33;;;;;;;10.15;4.78;;;;;;;16.42;100.00;100971.00;5068606;28;20025;-71
2023/10/13 02:11:39;;;;;;;10.10;5.63;;;;;;;16.39;100.00;100949.94;5061639;28;20032;-71
2023/10/13 02:14:05;;;;;;;9.80;5.45;;;;;;;16.27;100.00;100938.34;5066000;28;20021;-71
2023/10/13 02:16:31;;;;;;;12.38;5.03;;;;;;;16.46;100.00;100955.22;5060179;28;20032;-71
2023/10/13 02:18:57;;;;;;;11.02;4.90;;;;;;;16.38;100.00;100944.78;5038882;28;20036;-71
2023/10/13 02:21:31;;;;;;;12.32;5.40;;;;;;;16.34;100.00;100939.03;5055855;28;20031;-71
2023/10/13 02:24:00;;;;;;;13.43;5.03;;;;;;;16.36;100.00;100942.31;5044448;28;20100;-71
2023/10/13 02:26:38;;;;;;;10.15;5.60;;;;;;;16.47;100.00;100961.41;5054864;28;20438;-71
2023/10/13 02:29:07;;;;;;;14.00;5.15;;;;;;;16.41;100.00;100945.13;5038405;28;20035;-71
2023/10/13 02:31:36;;;;;;;13.90;6.40;;;;;;;16.42;100.00;100948.66;5053680;28;20052;-71
2023/10/13 02:34:07;;;;;;;13.95;5.47;;;;;;;16.35;100.00;100937.19;5053840;28;20039;-71
2023/10/13 02:36:37;;;;;;;13.43;6.57;;;;;;;16.35;100.00;100940.69;5053085;28;20025;-71
2023/10/13 02:39:08;;;;;;;15.05;7.10;;;;;;;16.33;100.00;100931.22;5063882;28;20059;-71
2023/10/13 02:41:38;;;;;;;16.10;6.90;;;;;;;16.48;100.00;100946.88;5058263;28;20077;-71
2023/10/13 02:44:08;;;;;;;15.73;7.97;;;;;;;16.47;100.00;100931.81;5064104;28;20024;-71
2023/10/13 02:46:39;;;;;;;16.02;8.15;;;;;;;16.46;100.00;100928.28;5067657;28;20041;-71
2023/10/13 02:49:13;;;;;;;18.52;8.20;;;;;;;16.43;100.00;100913.44;5059968;28;20025;-71
2023/10/13 02:51:41;;;;;;;18.85;9.07;;;;;;;16.36;100.00;100890.38;5049067;28;20175;-71
2023/10/13 02:54:11;;;;;;;16.38;8.27;;;;;;;16.46;100.00;100903.25;5056274;28;20110;-71
2023/10/13 02:56:56;;;;;;;20.30;9.18;;;;;;;16.43;100.00;100899.16;5049246;28;20801;-71
2023/10/13 02:59:34;;;;;;;19.77;9.68;;;;;;;16.41;100.00;100894.00;5063154;28;20052;-71
2023/10/13 03:02:17;;;;;;;19.30;9.40;;;;;;;16.46;100.00;100893.28;5055390;28;20035;-71
2023/10/13 03:04:50;;;;;;;19.67;9.93;;;;;;;16.34;100.00;100863.66;5068000;28;20529;-71
2023/10/13 03:07:21;;;;;;;19.65;9.50;;;;;;;16.44;100.00;100866.59;5056532;28;20044;-71
2023/10/13 03:09:55;;;;;;;;;;;;;;;16.47;100.00;100867.19;5053887;28;20387;-71
2023/10/13 03:12:21;;;;;;;19.48;10.35;;;;;;;16.46;100.00;100862.88;5059436;28;19912;-71
2023/10/13 03:14:55;;;;;;;20.50;10.35;;;;;;;16.46;100.00;100854.78;5063499;28;20447;-71
2023/10/13 03:17:32;;;;;;;22.83;9.25;;;;;;;16.43;100.00;100845.31;5039527;28;20099;-71
2023/10/13 03:19:58;;;;;;;20.13;10.98;;;;;;;16.34;100.00;100826.00;5062405;28;20029;-71
2023/10/13 03:22:31;;;;;;;22.10;10.88;;;;;;;16.37;100.00;100830.94;5067955;28;20035;-71
2023/10/13 03:25:04;;;;;;;20.83;9.25;;;;;;;16.35;100.00;100818.75;5059358;28;20036;-71
2023/10/13 03:27:40;;;;;;;21.67;10.30;;;;;;;16.41;100.00;100824.00;5057258;28;20025;-71
2023/10/13 03:30:15;;;;;;;23.77;10.20;;;;;;;16.32;100.00;100808.44;5052119;28;20090;-71
2023/10/13 03:32:49;;;;;;;19.98;11.07;;;;;;;16.46;100.00;100817.91;5058251;28;20024;-71
2023/10/13 03:35:24;;;;;;;26.58;11.55;;;;;;;16.31;100.00;100787.97;5057468;28;20033;-71
2023/10/13 03:37:54;;;;;;;28.40;11.68;;;;;;;16.33;100.00;100792.06;5056397;28;20036;-71
2023/10/13 03:43:05;;;;;;;21.67;11.45;;;;;;;16.42;100.00;100787.94;5056842;28;20039;-71
2023/10/13 03:45:38;;;;;;;24.52;12.25;;;;;;;16.49;100.00;100787.81;5051777;28;20116;-71
2023/10/13 03:48:08;;;;;;;22.45;11.35;;;;;;;16.54;100.00;100777.16;5055223;28;20458;-71
2023/10/13 03:50:47;;;;;;;22.98;12.48;;;;;;;16.50;100.00;100761.72;5053414;28;20117;-71
2023/10/13 03:53:13;;;;;;;23.15;11.57;;;;;;;16.57;100.00;100792.84;5065339;28;20066;-71
2023/10/13 03:55:39;;;;;;;24.33;11.05;;;;;;;16.51;100.00;100756.09;5048269;28;20033;-71
2023/10/13 03:58:04;;;;;;;22.83;11.60;;;;;;;16.59;100.00;100771.06;5049038;28;20064;-71
2023/10/13 04:00:31;;;;;;;22.83;11.82;;;;;;;16.60;100.00;100770.81;5058166;28;20024;-71
2023/10/13 04:08:44;;;;;;;23.35;13.10;;;;;;;16.61;100.00;100756.31;5058218;28;20043;-71
2023/10/13 04:29:56;;;;;;;24.27;13.43;;;;;;;16.79;100.00;100711.41;5067901;28;20082;-71
2023/10/13 04:32:28;;;;;;;21.75;11.73;;;;;;;16.81;100.00;100714.69;5068488;28;20079;-71
2023/10/13 04:35:08;;;;;;;21.80;11.20;;;;;;;16.81;100.00;100709.31;5052002;28;20134;-71
2023/10/13 04:37:48;;;;;;;21.95;10.40;;;;;;;16.83;100.00;100709.88;5061958;28;20024;-71
2023/10/13 04:40:14;;;;;;;23.25;11.45;;;;;;;16.85;100.00;100715.84;5061536;28;20036;-71
2023/10/13 04:42:49;;;;;;;18.77;9.70;;;;;;;16.82;100.00;100716.31;5045791;28;20029;-71
2023/10/13 04:47:58;;;;;;;21.30;10.98;;;;;;;16.82;100.00;100700.16;5063799;28;20039;-70
2023/10/13 04:50:34;;;;;;;26.58;11.40;;;;;;;16.85;100.00;100694.31;5053675;28;20040;-70
2023/10/13 04:53:02;;;;;;;20.73;10.55;;;;;;;16.89;100.00;100703.53;5070106;28;20082;-70
2023/10/13 06:28:41;;;;;;;13.57;7.22;;;;;;;17.11;100.00;100600.41;5039562;28;20099;-70
2023/10/13 06:31:12;;;;;;;14.18;6.50;;;;;;;17.17;100.00;100616.41;5061241;28;20039;-71
2023/10/13 06:33:42;;;;;;;13.70;5.93;;;;;;;17.14;100.00;100616.91;5042980;28;20028;-71
2023/10/13 06:36:09;;;;;;;14.00;6.80;;;;;;;17.18;100.00;100609.16;5062179;28;20021;-71
2023/10/13 06:38:37;;;;;;;16.23;6.50;;;;;;;17.15;100.00;100599.69;5040868;28;20396;-71
2023/10/13 06:41:07;;;;;;;13.32;6.97;;;;;;;17.07;100.00;100587.44;5042013;28;20029;-70
2023/10/13 06:43:39;;;;;;;13.40;5.40;;;;;;;17.16;100.00;100592.41;5058013;28;20024;-70
2023/10/13 06:46:23;;;;;;;13.77;6.70;;;;;;;17.19;100.00;100600.03;5059935;28;20056;-71
2023/10/13 06:48:50;;;;;;;11.13;5.75;;;;;;;17.15;100.00;100583.50;5041389;28;20598;-71
2023/10/13 06:51:21;;;;;;;11.43;5.95;;;;;;;17.13;100.00;100584.81;5060013;28;20048;-70
2023/10/13 06:53:47;;;;;;;18.48;6.53;;;;;;;17.07;100.00;100573.16;5060283;28;20107;-70
2023/10/13 06:56:21;;;;;;;15.15;6.90;;;;;;;17.13;100.00;100579.44;5043303;28;20384;-70
2023/10/13 06:58:47;;;;;;;10.85;5.72;;;;;;;17.01;100.00;100555.28;5058212;28;20514;-70
2023/10/13 07:01:15;;;;;;;12.90;6.00;;;;;;;17.02;100.00;100541.53;5057816;28;20066;-71
2023/10/13 07:03:42;;;;;;;11.95;5.50;;;;;;;17.15;100.00;100569.22;5054661;28;20486;-70
2023/10/13 07:06:11;;;;;;;14.45;6.40;;;;;;;17.22;100.00;100575.25;5057147;28;20032;-70
2023/10/13 07:08:37;;;;;;;14.38;6.40;;;;;;;17.16;100.00;100549.28;5059084;28;20031;-70
2023/10/13 07:11:08;;;;;;;15.57;6.10;;;;;;;17.22;100.00;100551.00;5041362;28;20024;-70
2023/10/13 07:13:38;;;;;;;13.93;6.68;;;;;;;17.23;100.00;100553.44;5057789;28;20028;-71
2023/10/13 07:16:13;;;;;;;13.20;5.15;;;;;;;17.17;100.00;100545.53;5061012;28;20032;-70
2023/10/13 07:18:49;;;;;;;12.25;5.57;;;;;;;17.20;100.00;100531.56;5059415;28;20025;-70
2023/10/13 07:21:24;;;;;;;16.85;6.50;;;;;;;17.29;100.00;100541.69;5057636;28;20039;-72
2023/10/13 07:24:00;;;;;;;13.95;5.35;;;;;;;17.31;100.00;100534.13;5035690;28;20426;-72
2023/10/13 07:26:26;;;;;;;10.88;6.43;;;;;;;17.31;100.00;100528.75;5038519;28;20029;-74
2023/10/13 07:28:52;;;;;;;9.73;5.53;;;;;;;17.35;100.00;100526.38;5059396;28;20029;-72
2023/10/13 07:31:19;;;;;;;16.95;6.47;;;;;;;17.37;100.00;100521.56;5045305;28;20045;-73
2023/10/13 07:33:44;;;;;;;12.18;4.45;;;;;;;17.38;100.00;100517.78;5047697;28;20391;-73
2023/10/13 07:36:17;;;;;;;17.10;5.35;;;;;;;17.43;100.00;100520.56;5051695;28;20029;-72
2023/10/13 07:38:48;;;;;;;13.43;5.50;;;;;;;17.48;100.00;100517.94;5063746;28;20044;-71
2023/10/13 07:41:15;;;;;;;16.75;6.93;;;;;;;17.51;100.00;100520.13;5063557;28;20031;-72
2023/10/13 07:43:42;;;;;;;19.95;5.50;;;;;;;17.52;100.00;100520.91;5055351;28;20099;-75
2023/10/13 07:46:10;;;;;;;14.65;5.10;;;;;;;17.58;100.00;100532.59;5061450;28;20082;-74
2023/10/13 07:48:37;;;;;;;14.95;6.13;;;;;;;17.61;100.00;100527.53;5054138;28;20033;-74
2023/10/13 07:51:11;;;;;;;16.30;6.80;;;;;;;17.69;100.00;100518.19;5059516;28;20037;-72
2023/10/13 07:53:40;;;;;;;11.60;4.85;;;;;;;17.75;100.00;100526.06;5049815;28;20046;-70
2023/10/13 07:56:07;;;;;;;14.48;5.13;;;;;;;17.80;100.00;100514.56;5050092;28;20032;-74
2023/10/13 07:58:47;;;;;;;15.68;5.28;;;;;;;17.82;100.00;100507.03;5064756;28;20433;-71
2023/10/13 08:01:17;;;;;;;15.57;5.85;;;;;;;17.84;100.00;100510.28;5062091;28;20033;-69
2023/10/13 08:03:45;;;;;;;12.52;6.35;;;;;;;17.89;100.00;100502.25;5058137;28;20086;-72
2023/10/13 08:08:49;;;;;;;15.73;5.28;;;;;;;18.00;100.00;100502.34;5062926;28;20098;-74
2023/10/13 08:11:26;;;;;;;13.55;5.05;;;;;;;18.01;100.00;100506.69;5068442;28;20038;-75
2023/10/13 08:13:54;;;;;;;13.77;5.55;;;;;;;18.06;100.00;100512.13;5062868;28;20024;-74
2023/10/13 08:16:23;;;;;;;12.73;5.15;;;;;;;18.07;100.00;100511.84;5057472;28;20044;-74
2023/10/13 08:18:52;;;;;;;17.95;5.32;;;;;;;18.12;100.00;100511.09;5065003;28;20044;-73
2023/10/13 08:21:31;;;;;;;16.00;5.90;;;;;;;18.15;100.00;100494.38;5069573;28;20033;-73
2023/10/13 08:23:58;;;;;;;12.93;5.15;;;;;;;18.22;100.00;100496.91;5050947;28;20025;-73
2023/10/13 08:26:29;;;;;;;13.25;4.68;;;;;;;18.27;100.00;100495.06;5050170;28;20025;-73
2023/10/13 08:34:38;;;;;;;16.10;7.72;;;;;;;18.56;100.00;100500.97;5070655;28;20060;-73
2023/10/13 08:43:08;;;;;;;11.80;5.45;;;;;;;18.82;100.00;100503.88;5069300;28;20036;-73
2023/10/13 08:48:07;;;;;;;14.55;5.72;;;;;;;18.89;100.00;100492.84;5070214;28;20047;-73
2023/10/13 08:53:31;;;;;;;10.73;6.63;;;;;;;19.03;100.00;100473.19;5050791;28;20369;-73
2023/10/13 09:01:35;;;;;;;19.88;6.85;;;;;;;19.15;100.00;100472.16;5053097;28;20041;-73
2023/10/13 09:04:20;;;;;;;14.10;5.53;;;;;;;19.11;100.00;100469.19;5067146;28;20024;-73
2023/10/13 09:06:47;;;;;;;19.23;5.15;;;;;;;19.09;100.00;100471.34;5069087;28;20032;-73
2023/10/13 09:09:34;;;;;;;20.90;8.15;;;;;;;19.15;100.00;100469.47;5069252;28;20109;-73
2023/10/13 09:12:11;;;;;;;14.10;5.60;;;;;;;19.21;100.00;100469.25;5052793;28;20555;-73
2023/10/13 09:14:42;;;;;;;16.38;6.70;;;;;;;19.22;100.00;100472.75;5067664;28;20021;-73
2023/10/13 09:19:55;;;;;;;12.80;5.70;;;;;;;19.20;100.00;100461.38;5062935;28;20043;-73
2023/10/13 09:22:37;;;;;;;14.32;5.65;;;;;;;19.29;100.00;100467.13;5047951;28;20047;-73
2023/10/13 09:25:13;;;;;;;15.02;5.38;;;;;;;19.28;100.00;100471.69;5050062;28;20032;-73
2023/10/13 09:27:38;;;;;;;16.83;5.35;;;;;;;19.24;100.00;100457.88;5036973;28;20403;-73
2023/10/13 09:30:22;;;;;;;13.57;5.50;;;;;;;19.28;100.00;100463.56;5068936;28;20029;-73
2023/10/13 09:33:01;;;;;;;10.32;5.28;;;;;;;19.26;100.00;100449.53;5066961;28;20032;-73
2023/10/13 09:35:27;;;;;;;16.58;5.03;;;;;;;19.29;100.00;100465.22;5051124;28;20055;-73
2023/10/13 09:37:56;;;;;;;17.17;7.50;;;;;;;19.32;100.00;100461.97;5053046;28;20032;-73
2023/10/13 09:40:26;;;;;;;14.20;5.50;;;;;;;19.33;100.00;100466.31;5067982;28;20035;-73
2023/10/13 09:42:56;;;;;;;10.32;5.45;;;;;;;19.30;100.00;100469.53;5060838;28;20024;-73
2023/10/13 09:45:36;;;;;;;13.00;4.78;;;;;;;19.38;100.00;100462.81;5067598;28;20028;-73
2023/10/13 09:48:06;;;;;;;14.25;5.55;;;;;;;19.45;100.00;100455.28;5064687;28;20055;-73
2023/10/13 09:50:37;;;;;;;15.07;4.93;;;;;;;19.49;100.00;100442.81;5049541;28;20029;-73
2023/10/13 09:53:10;;;;;;;10.52;4.50;;;;;;;19.59;100.00;100452.88;5049822;28;20044;-73
2023/10/13 09:55:40;;;;;;;17.85;6.00;;;;;;;19.60;100.00;100451.81;5040059;28;20091;-73
2023/10/13 09:58:11;;;;;;;13.18;5.93;;;;;;;19.61;100.00;100448.81;5034256;28;20041;-73
2023/10/13 10:00:46;;;;;;;13.93;5.55;;;;;;;19.59;100.00;100440.16;5049632;28;20041;-73
2023/10/13 10:03:15;;;;;;;11.35;4.93;;;;;;;19.66;100.00;100439.91;5048910;28;20021;-73
2023/10/13 10:06:03;;;;;;;10.75;5.50;;;;;;;19.77;100.00;100433.47;5048885;28;20037;-73
2023/10/13 10:08:35;;;;;;;14.73;5.40;;;;;;;19.90;100.00;100427.53;5068395;28;20068;-73
2023/10/13 10:11:04;;;;;;;17.15;5.93;;;;;;;20.01;100.00;100441.88;5062126;28;20111;-73
2023/10/13 10:13:53;;;;;;;11.80;5.47;;;;;;;20.03;100.00;100425.38;5031545;28;20495;-73
2023/10/13 10:16:29;;;;;;;15.57;5.00;;;;;;;20.02;100.00;100421.84;5065309;28;20024;-73
2023/10/13 10:19:03;;;;;;;13.98;4.93;;;;;;;20.00;100.00;100424.03;5051381;28;20068;-73
2023/10/13 10:21:35;;;;;;;11.60;4.78;;;;;;;19.93;100.00;100409.94;5060732;28;20040;-73
2023/10/13 10:24:07;;;;;;;15.35;5.47;;;;;;;19.89;100.00;100408.88;5055816;28;20102;-73
2023/10/13 10:26:32;;;;;;;15.10;6.65;;;;;;;19.84;100.00;100400.75;5059554;28;20086;-73
2023/10/13 10:29:00;;;;;;;13.88;4.55;;;;;;;19.83;100.00;100405.34;5049202;28;20032;-73
2023/10/13 10:31:34;;;;;;;13.00;7.15;;;;;;;19.81;100.00;100402.09;5050292;28;20032;-73
2023/10/13 10:34:12;;;;;;;15.63;5.88;;;;;;;19.78;100.00;100394.50;5044546;28;20118;-73
2023/10/13 10:36:42;;;;;;;17.65;5.55;;;;;;;19.78;100.00;100380.97;5053525;28;20104;-73
2023/10/13 10:39:09;;;;;;;13.25;5.38;;;;;;;19.80;100.00;100386.91;5067438;28;20399;-73
2023/10/13 10:41:51;;;;;;;17.10;5.63;;;;;;;19.79;100.00;100382.59;5041042;28;20029;-73
2023/10/13 10:44:34;;;;;;;12.35;6.50;;;;;;;19.84;100.00;100379.09;5057068;28;20039;-73
2023/10/13 10:47:31;;;;;;;14.85;6.40;;;;;;;19.91;100.00;100382.31;5060265;28;20361;-73
2023/10/13 10:49:58;;;;;;;14.27;6.03;;;;;;;19.96;100.00;100386.91;5055597;28;20028;-74
2023/10/13 10:52:26;;;;;;;13.77;5.72;;;;;;;20.00;100.00;100394.25;5051159;28;20052;-74
2023/10/13 10:54:59;;;;;;;11.82;5.00;;;;;;;20.02;100.00;100386.66;5045649;28;20036;-74
2023/10/13 10:57:28;;;;;;;17.13;7.15;;;;;;;20.04;100.00;100394.50;5053915;28;20021;-73
2023/10/13 11:00:11;;;;;;;18.42;6.25;;;;;;;20.07;100.00;100367.72;5036005;28;20060;-75
2023/10/13 11:02:39;;;;;;;18.67;5.40;;;;;;;20.10;100.00;100378.00;5040732;28;20029;-75
2023/10/13 11:05:06;;;;;;;16.23;6.43;;;;;;;20.19;100.00;100378.25;5040380;28;20073;-70
2023/10/13 11:07:34;;;;;;;13.30;5.18;;;;;;;20.27;100.00;100368.78;5033989;28;20040;-72
2023/10/13 11:10:20;;;;;;;14.43;5.05;;;;;;;20.31;100.00;100357.13;5036005;28;20041;-69
2023/10/13 11:13:21;;;;;;;16.33;5.13;;;;;;;20.48;100.00;100386.59;5031068;28;20040;-71
2023/10/13 11:15:47;;;;;;;11.53;5.83;;;;;;;20.57;100.00;100376.06;5031069;28;20041;-72
2023/10/13 11:18:20;;;;;;;19.23;5.80;;;;;;;20.70;100.00;100364.66;5035661;28;20037;-72
2023/10/13 11:20:46;;;;;;;13.65;6.28;;;;;;;20.78;100.00;100361.38;5036892;28;20029;-71
2023/10/13 11:23:15;;;;;;;18.17;5.47;;;;;;;20.87;100.00;100358.88;5040950;28;20032;-70
2023/10/13 11:25:44;;;;;;;12.00;6.10;;;;;;;20.92;100.00;100339.09;5039155;28;20037;-70
2023/10/13 11:28:17;;;;;;;12.13;5.10;;;;;;;20.91;100.00;100346.41;5040121;28;20131;-69
2023/10/13 11:30:49;;;;;;;13.55;6.97;;;;;;;20.91;100.00;100341.00;5030872;28;20044;-73
2023/10/13 11:33:18;;;;;;;;;;;;;;;20.95;100.00;100325.78;5031108;28;20487;-73
2023/10/13 11:38:28;;;;;;;13.18;5.70;;;;;;;20.98;100.00;100332.53;5030234;28;20041;-73
2023/10/13 11:46:19;;;;;;;13.80;4.95;;;;;;;21.28;100.00;100303.63;5029905;28;20037;-73
2023/10/13 11:48:46;;;;;;;21.75;6.68;;;;;;;21.33;100.00;100293.56;5032833;28;20535;-73
2023/10/13 11:51:32;;;;;;;14.02;5.50;;;;;;;21.38;100.00;100296.28;5030030;28;20022;-73
2023/10/13 11:53:58;;;;;;;19.65;5.68;;;;;;;21.43;99.94;100282.66;5030353;28;20060;-73
2023/10/13 11:56:24;;;;;;;13.60;5.38;;;;;;;21.48;100.00;100289.13;5030761;28;20032;-73
2023/10/13 11:58:50;;;;;;;18.98;7.53;;;;;;;21.45;100.00;100279.66;5040919;28;20057;-73
2023/10/13 12:01:20;;;;;;;17.42;6.15;;;;;;;21.45;100.00;100283.16;5049770;28;20911;-71
2023/10/13 12:11:54;;;;;;;33.35;7.50;;;;;;;21.56;98.94;100266.81;5053911;28;20051;-74
2023/10/13 12:14:37;;;;;;;19.13;6.38;;;;;;;21.60;97.40;100265.97;5033517;28;20039;-73
2023/10/13 12:17:04;;;;;;;16.38;6.63;;;;;;;21.67;96.91;100257.50;5063139;28;20094;-74
2023/10/13 12:19:30;;;;;;;16.55;5.75;;;;;;;21.71;98.40;100258.53;5061829;28;20036;-74
2023/10/13 12:21:57;;;;;;;16.20;5.38;;;;;;;21.74;97.36;100254.44;5062080;28;20170;-71
2023/10/13 12:27:00;;;;;;;13.05;5.55;;;;;;;21.86;95.79;100263.81;5070276;28;20082;-74
2023/10/13 12:29:29;;;;;;;10.02;5.32;;;;;;;21.92;95.35;100252.91;5069706;28;20024;-74
2023/10/13 12:37:49;;;;;;;14.48;5.60;;;;;;;21.99;95.91;100261.53;5068496;28;20063;-74
2023/10/13 12:54:19;;;;;;;15.43;5.28;;;;;;;21.95;94.82;100253.16;5066909;28;20048;-77
2023/10/13 12:56:45;;;;;;;16.38;5.22;;;;;;;21.99;93.79;100246.06;5062416;28;20052;-77
2023/10/13 12:59:14;;;;;;;17.98;6.00;;;;;;;22.02;93.73;100247.38;5042029;28;20136;-77
2023/10/13 13:01:43;;;;;;;10.85;5.90;;;;;;;22.00;94.48;100233.28;5040630;28;20024;-77
2023/10/13 13:04:20;;;;;;;15.75;5.00;;;;;;;22.07;93.41;100247.34;5038987;28;20026;-77
2023/10/13 13:06:50;;;;;;;11.20;6.20;;;;;;;22.05;91.98;100252.25;5033222;28;20036;-77
2023/10/13 13:09:24;;;;;;;12.82;5.53;;;;;;;22.06;92.27;100248.41;5041928;28;20043;-77
2023/10/13 13:11:49;;;;;;;15.50;4.85;;;;;;;22.07;90.20;100248.13;5045569;28;20712;-77
2023/10/13 13:14:14;;;;;;;19.65;7.05;;;;;;;22.10;89.88;100239.41;5032302;28;20033;-76
2023/10/13 13:16:40;;;;;;;20.17;6.88;;;;;;;22.05;90.82;100241.38;5038491;28;20037;-77
2023/10/13 13:19:14;;;;;;;13.10;5.43;;;;;;;22.04;90.63;100237.84;5030541;28;20029;-77
2023/10/13 13:21:39;;;;;;;12.55;4.20;;;;;;;22.02;90.30;100242.75;5035601;28;20032;-77
2023/10/13 13:24:10;;;;;;;13.23;5.40;;;;;;;21.98;89.12;100225.44;5030523;28;20048;-76
2023/10/13 13:26:40;;;;;;;12.25;4.70;;;;;;;22.01;89.44;100240.34;5031495;28;20057;-76
2023/10/13 13:29:09;;;;;;;9.82;4.00;;;;;;;21.99;89.53;100246.06;5049608;28;20107;-76
2023/10/13 13:31:40;;;;;;;13.02;4.32;;;;;;;22.02;88.01;100241.97;5048904;28;20035;-76
2023/10/13 13:34:06;;;;;;;;;;;;;;;22.03;91.86;100244.41;5044008;28;20034;-76
2023/10/13 13:36:32;;;;;;;15.88;5.10;;;;;;;22.01;88.85;100230.28;5045804;28;20279;-74
2023/10/13 13:39:00;;;;;;;14.30;5.50;;;;;;;22.04;88.00;100231.63;5049196;28;20101;-74
2023/10/13 13:41:25;;;;;;;16.23;4.60;;;;;;;22.02;86.82;100229.19;5049077;28;20128;-74
2023/10/13 13:43:54;;;;;;;10.70;4.85;;;;;;;21.98;88.03;100225.44;5040788;28;20025;-73
2023/10/13 13:46:24;;;;;;;11.98;4.22;;;;;;;21.93;87.38;100221.94;5016487;28;20067;-75
2023/10/13 13:48:57;;;;;;;14.52;5.32;;;;;;;21.90;88.23;100228.75;5027876;28;20388;-75
2023/10/13 13:51:27;;;;;;;11.35;4.28;;;;;;;21.83;87.99;100229.13;5027081;28;21047;-73
2023/10/13 13:53:53;;;;;;;9.73;4.88;;;;;;;21.81;89.56;100231.31;5041566;28;20518;-74
2023/10/13 13:56:19;;;;;;;13.68;4.88;;;;;;;21.81;88.70;100225.88;5044366;28;20028;-74
2023/10/13 13:58:51;;;;;;;10.90;4.35;;;;;;;21.79;90.75;100228.06;5038937;28;20033;-74
2023/10/13 14:01:21;;;;;;;14.10;4.35;;;;;;;21.76;88.79;100222.41;5054047;28;20056;-74
2023/10/13 14:03:50;;;;;;;14.48;5.32;;;;;;;21.76;89.79;100223.22;5047282;28;20025;-71
2023/10/13 14:06:26;;;;;;;8.73;4.45;;;;;;;21.74;88.95;100224.59;5047467;28;20031;-75
2023/10/13 14:08:56;;;;;;;13.77;4.07;;;;;;;21.77;89.05;100218.56;5047327;28;20095;-73
2023/10/13 14:16:53;;;;;;;14.57;5.22;;;;;;;21.78;89.08;100217.50;5058743;28;20029;-74
2023/10/13 14:19:28;;;;;;;8.55;4.05;;;;;;;21.74;88.37;100216.44;5049254;28;20024;-75
2023/10/13 14:21:57;;;;;;;12.23;5.18;;;;;;;21.73;88.10;100210.22;5031349;28;20032;-75
2023/10/13 14:24:27;;;;;;;10.18;4.07;;;;;;;21.76;87.40;100233.25;5048872;28;20037;-72
2023/10/13 14:27:07;;;;;;;14.68;6.00;;;;;;;21.75;88.11;100223.50;5031323;28;20147;-73
2023/10/13 14:29:33;;;;;;;12.63;4.53;;;;;;;21.75;87.47;100218.88;5030534;28;20175;-73
2023/10/13 14:31:59;;;;;;;11.55;5.10;;;;;;;21.79;88.30;100221.81;5048787;28;20041;-73
2023/10/13 14:34:26;;;;;;;10.88;4.90;;;;;;;21.83;86.58;100229.13;5049053;28;20032;-73
2023/10/13 14:36:54;;;;;;;15.52;5.45;;;;;;;21.84;87.52;100206.28;5031032;28;20035;-73
2023/10/13 14:39:20;;;;;;;13.77;5.20;;;;;;;21.88;87.02;100230.97;5048982;28;20538;-73
2023/10/13 14:41:49;;;;;;;12.95;4.38;;;;;;;21.89;86.04;100208.16;5048948;28;20031;-73
2023/10/13 14:44:14;;;;;;;18.88;5.03;;;;;;;21.90;85.94;100217.91;5048493;28;20465;-73
2023/10/13 14:46:40;;;;;;;12.18;5.85;;;;;;;21.84;86.53;100219.84;5030916;28;20056;-73